createdAt,value
2022-10-22T00:03:17.585Z,13.75
2022-10-22T00:07:19.882Z,13.75
2022-10-22T00:11:21.663Z,13.73
2022-10-22T00:15:23.441Z,13.72
2022-10-22T00:19:25.251Z,13.70
2022-10-22T00:23:26.923Z,13.70
2022-10-22T00:27:28.596Z,13.69
2022-10-22T00:31:30.446Z,13.67
2022-10-22T00:35:33.130Z,13.67
2022-10-22T00:39:34.821Z,13.67
2022-10-22T00:43:54.589Z,13.70
2022-10-22T00:47:59.232Z,13.71
2022-10-22T00:52:01.080Z,13.73
2022-10-22T00:56:02.958Z,13.75
2022-10-22T01:00:05.887Z,13.77
2022-10-22T01:04:07.611Z,13.80
2022-10-22T01:08:19.551Z,13.83
2022-10-22T01:12:21.224Z,13.88
2022-10-22T01:16:50.094Z,13.90
2022-10-22T01:20:57.642Z,13.94
2022-10-22T01:25:43.679Z,13.95
2022-10-22T01:29:50.866Z,13.98
2022-10-22T01:33:54.545Z,13.99
2022-10-22T01:38:00.521Z,14.00
2022-10-22T01:42:02.271Z,14.01
2022-10-22T01:46:06.099Z,14.01
2022-10-22T01:50:19.909Z,14.00
2022-10-22T01:54:55.534Z,13.99
2022-10-22T01:59:15.756Z,13.97
2022-10-22T02:03:23.943Z,13.93
2022-10-22T02:07:30.776Z,13.90
2022-10-22T02:11:32.610Z,13.88
2022-10-22T02:15:37.046Z,13.87
2022-10-22T02:19:48.354Z,13.83
2022-10-22T02:23:50.330Z,13.78
2022-10-22T02:28:00.085Z,13.76
2022-10-22T02:32:05.691Z,13.73
2022-10-22T02:36:08.479Z,13.68
2022-10-22T02:40:10.949Z,13.66
2022-10-22T02:44:12.668Z,13.65
2022-10-22T02:48:14.472Z,13.63
2022-10-22T02:52:16.202Z,13.61
2022-10-22T02:56:18.247Z,13.58
2022-10-22T03:00:21.372Z,13.57
2022-10-22T03:04:23.087Z,13.54
2022-10-22T03:08:24.878Z,13.52
2022-10-22T03:12:26.534Z,13.50
2022-10-22T03:16:28.288Z,13.50
2022-10-22T03:20:29.931Z,13.48
2022-10-22T03:24:36.070Z,13.47
2022-10-22T03:28:40.070Z,13.45
2022-10-22T03:32:41.801Z,13.42
2022-10-22T03:36:43.922Z,13.43
2022-10-22T03:40:46.594Z,13.45
2022-10-22T03:44:48.361Z,13.47
2022-10-22T03:48:50.065Z,13.49
2022-10-22T03:52:53.357Z,13.52
2022-10-22T03:56:55.007Z,13.55
2022-10-22T04:00:56.796Z,13.58
2022-10-22T04:04:58.511Z,13.62
2022-10-22T04:09:01.256Z,13.63
2022-10-22T04:13:03.050Z,13.66
2022-10-22T04:17:04.763Z,13.69
2022-10-22T04:21:08.988Z,13.69
2022-10-22T04:25:10.753Z,13.71
2022-10-22T04:29:15.924Z,13.73
2022-10-22T04:33:18.173Z,13.73
2022-10-22T04:37:20.460Z,13.73
2022-10-22T04:41:25.031Z,13.74
2022-10-22T04:45:26.755Z,13.74
2022-10-22T04:49:28.546Z,13.74
2022-10-22T04:53:30.622Z,13.73
2022-10-22T04:57:32.797Z,13.74
2022-10-22T05:01:40.083Z,13.75
2022-10-22T05:05:44.979Z,13.72
2022-10-22T05:09:46.617Z,13.68
2022-10-22T05:13:48.497Z,13.65
2022-10-22T05:17:50.142Z,13.62
2022-10-22T05:21:53.467Z,13.60
2022-10-22T05:25:55.109Z,13.57
2022-10-22T05:29:56.787Z,13.55
2022-10-22T05:33:58.598Z,13.54
2022-10-22T05:38:00.322Z,13.52
2022-10-22T05:42:02.285Z,13.49
2022-10-22T05:46:06.573Z,13.50
2022-10-22T05:50:08.558Z,13.51
2022-10-22T05:54:17.408Z,13.55
2022-10-22T05:58:19.062Z,13.55
2022-10-22T06:02:20.808Z,13.59
2022-10-22T06:06:34.278Z,13.62
2022-10-22T06:10:36.083Z,13.61
2022-10-22T06:14:37.782Z,13.63
2022-10-22T06:18:39.687Z,13.63
2022-10-22T06:22:41.513Z,13.63
2022-10-22T06:26:43.911Z,13.63
2022-10-22T06:30:46.675Z,13.67
2022-10-22T06:34:50.493Z,13.68
2022-10-22T06:38:53.951Z,13.70
2022-10-22T06:42:55.658Z,13.72
2022-10-22T06:46:57.477Z,13.74
2022-10-22T06:51:03.561Z,13.76
2022-10-22T06:55:05.602Z,13.78
2022-10-22T06:59:07.280Z,13.82
2022-10-22T07:03:14.002Z,13.88
2022-10-22T07:07:15.769Z,13.90
2022-10-22T07:11:19.478Z,13.94
2022-10-22T07:15:21.153Z,13.97
2022-10-22T07:19:22.903Z,13.99
2022-10-22T07:23:24.585Z,14.01
2022-10-22T07:27:26.311Z,14.04
2022-10-22T07:31:28.242Z,14.06
2022-10-22T07:35:30.045Z,14.06
2022-10-22T07:39:31.752Z,14.07
2022-10-22T07:43:33.469Z,14.09
2022-10-22T07:47:35.299Z,14.09
2022-10-22T07:51:37.121Z,14.11
2022-10-22T07:55:38.762Z,14.12
2022-10-22T07:59:40.436Z,14.14
2022-10-22T08:03:42.089Z,14.17
2022-10-22T08:07:43.817Z,14.22
2022-10-22T08:11:46.355Z,14.27
2022-10-22T08:15:49.695Z,14.33
2022-10-22T08:19:53.147Z,14.40
2022-10-22T08:23:55.010Z,14.45
2022-10-22T08:27:56.801Z,14.48
2022-10-22T08:31:58.523Z,14.57
2022-10-22T08:36:00.486Z,14.66
2022-10-22T08:40:02.420Z,14.70
2022-10-22T08:44:12.947Z,14.76
2022-10-22T08:48:41.627Z,14.78
2022-10-22T08:52:47.907Z,14.88
2022-10-22T08:57:23.514Z,14.94
2022-10-22T09:01:33.122Z,15.01
2022-10-22T09:05:43.625Z,15.05
2022-10-22T09:09:51.847Z,15.15
2022-10-22T09:13:55.045Z,15.18
2022-10-22T09:18:18.143Z,15.18
2022-10-22T09:22:43.949Z,15.15
2022-10-22T09:26:45.687Z,15.16
2022-10-22T09:30:47.452Z,15.19
2022-10-22T09:34:50.322Z,15.21
2022-10-22T09:38:53.439Z,15.25
2022-10-22T09:42:55.378Z,15.34
2022-10-22T09:46:57.146Z,15.39
2022-10-22T09:51:23.082Z,15.37
2022-10-22T09:55:25.741Z,15.42
2022-10-22T09:59:33.318Z,15.56
2022-10-22T10:03:34.994Z,15.70
2022-10-22T10:07:37.322Z,15.79
2022-10-22T10:11:59.400Z,15.83
2022-10-22T10:16:16.290Z,15.86
2022-10-22T10:20:56.676Z,15.89
2022-10-22T10:25:10.235Z,15.93
2022-10-22T10:29:27.778Z,16.04
2022-10-22T10:33:56.686Z,16.17
2022-10-22T10:38:17.198Z,16.24
2022-10-22T10:42:33.245Z,16.27
2022-10-22T10:46:54.465Z,16.28
2022-10-22T10:51:05.283Z,16.28
2022-10-22T10:55:28.783Z,16.31
2022-10-22T11:00:05.158Z,16.33
2022-10-22T11:04:21.997Z,16.37
2022-10-22T11:08:30.607Z,16.30
2022-10-22T11:12:45.295Z,16.22
2022-10-22T11:16:53.738Z,16.15
2022-10-22T11:21:21.708Z,16.08
2022-10-22T11:25:29.023Z,16.04
2022-10-22T11:29:39.441Z,15.99
2022-10-22T11:33:57.357Z,15.95
2022-10-22T11:38:10.285Z,15.91
2022-10-22T11:42:30.043Z,15.87
2022-10-22T11:46:39.949Z,15.87
2022-10-22T11:50:41.592Z,15.86
2022-10-22T11:54:44.985Z,15.87
2022-10-22T11:58:52.171Z,15.91
2022-10-22T12:03:24.277Z,16.02
2022-10-22T12:07:48.337Z,16.20
2022-10-22T12:11:51.131Z,16.34
2022-10-22T12:15:56.961Z,16.39
2022-10-22T12:20:13.048Z,16.40
2022-10-22T12:24:17.786Z,16.39
2022-10-22T12:28:20.057Z,16.42
2022-10-22T12:32:21.907Z,16.38
2022-10-22T12:36:26.708Z,16.33
2022-10-22T12:40:30.881Z,16.34
2022-10-22T12:44:33.033Z,16.40
2022-10-22T12:48:40.233Z,16.53
2022-10-22T12:52:42.702Z,16.59
2022-10-22T12:56:46.931Z,16.60
2022-10-22T13:00:49.268Z,16.64
2022-10-22T13:05:21.844Z,16.62
2022-10-22T13:09:27.657Z,16.62
2022-10-22T13:13:42.726Z,16.62
2022-10-22T13:17:44.602Z,16.60
2022-10-22T13:21:49.020Z,16.58
2022-10-22T13:26:04.425Z,16.62
2022-10-22T13:30:19.450Z,16.60
2022-10-22T13:34:24.655Z,16.59
2022-10-22T13:38:28.021Z,16.60
2022-10-22T13:42:29.662Z,16.59
2022-10-22T13:46:31.590Z,16.66
2022-10-22T13:50:33.322Z,16.70
2022-10-22T13:54:34.962Z,16.71
2022-10-22T13:58:36.636Z,16.74
2022-10-22T14:02:38.559Z,16.75
2022-10-22T14:06:40.407Z,16.67
2022-10-22T14:10:42.088Z,16.61
2022-10-22T14:14:43.875Z,16.61
2022-10-22T14:18:46.080Z,16.59
2022-10-22T14:22:49.369Z,16.57
2022-10-22T14:26:51.037Z,16.56
2022-10-22T14:30:53.716Z,16.55
2022-10-22T14:34:55.356Z,16.51
2022-10-22T14:38:57.472Z,16.47
2022-10-22T14:42:59.124Z,16.43
2022-10-22T14:47:00.796Z,16.43
2022-10-22T14:51:02.530Z,16.46
2022-10-22T14:55:04.621Z,16.46
2022-10-22T14:59:06.286Z,16.49
2022-10-22T15:03:08.014Z,16.48
2022-10-22T15:07:09.810Z,16.49
2022-10-22T15:11:13.223Z,16.47
2022-10-22T15:15:16.475Z,16.46
2022-10-22T15:19:19.975Z,16.42
2022-10-22T15:23:21.675Z,16.36
2022-10-22T15:27:23.681Z,16.29
2022-10-22T15:31:43.669Z,16.23
2022-10-22T15:35:45.340Z,16.17
2022-10-22T15:39:47.224Z,16.11
2022-10-22T15:43:49.035Z,16.06
2022-10-22T15:47:50.756Z,16.02
2022-10-22T15:51:53.547Z,15.98
2022-10-22T15:55:55.380Z,15.94
2022-10-22T15:59:57.153Z,15.87
2022-10-22T16:04:05.183Z,15.79
2022-10-22T16:08:09.686Z,15.71
2022-10-22T16:12:13.111Z,15.63
2022-10-22T16:16:17.052Z,15.56
2022-10-22T16:20:18.702Z,15.49
2022-10-22T16:24:20.865Z,15.40
2022-10-22T16:28:22.642Z,15.31
2022-10-22T16:32:24.430Z,15.23
2022-10-22T16:36:26.194Z,15.17
2022-10-22T16:40:29.243Z,15.08
2022-10-22T16:44:30.878Z,15.02
2022-10-22T16:48:33.583Z,14.95
2022-10-22T16:52:35.752Z,14.90
2022-10-22T16:56:37.638Z,14.86
2022-10-22T17:00:39.499Z,14.83
2022-10-22T17:04:41.185Z,14.82
2022-10-22T17:08:43.376Z,14.78
2022-10-22T17:12:46.417Z,14.76
2022-10-22T17:16:53.655Z,14.76
2022-10-22T17:20:56.335Z,14.71
2022-10-22T17:25:14.435Z,14.67
2022-10-22T17:29:16.844Z,14.61
2022-10-22T17:33:18.559Z,14.58
2022-10-22T17:37:20.278Z,14.52
2022-10-22T17:41:24.775Z,14.50
2022-10-22T17:45:26.738Z,14.44
2022-10-22T17:49:28.456Z,14.40
2022-10-22T17:53:30.123Z,14.36
2022-10-22T17:57:31.908Z,14.31
2022-10-22T18:01:35.517Z,14.26
2022-10-22T18:05:37.268Z,14.23
2022-10-22T18:09:39.676Z,14.19
2022-10-22T18:13:41.365Z,14.16
2022-10-22T18:17:43.333Z,14.13
2022-10-22T18:21:45.571Z,14.10
2022-10-22T18:25:48.779Z,14.10
2022-10-22T18:29:50.961Z,14.07
2022-10-22T18:33:55.197Z,14.07
2022-10-22T18:37:57.001Z,14.07
2022-10-22T18:41:58.657Z,14.07
2022-10-22T18:46:00.693Z,14.06
2022-10-22T18:50:02.311Z,14.06
2022-10-22T18:54:11.236Z,14.05
2022-10-22T18:58:23.279Z,14.01
2022-10-22T19:02:25.012Z,13.99
2022-10-22T19:06:35.842Z,13.94
2022-10-22T19:10:39.119Z,13.88
2022-10-22T19:14:40.999Z,13.82
2022-10-22T19:18:42.700Z,13.76
2022-10-22T19:22:44.369Z,13.73
2022-10-22T19:26:46.503Z,13.69
2022-10-22T19:30:48.194Z,13.67
2022-10-22T19:34:49.914Z,13.64
2022-10-22T19:38:52.363Z,13.64
2022-10-22T19:42:54.022Z,13.62
2022-10-22T19:46:55.674Z,13.60
2022-10-22T19:51:03.158Z,13.58
2022-10-22T19:55:05.350Z,13.57
2022-10-22T19:59:07.054Z,13.56
2022-10-22T20:03:08.788Z,13.56
2022-10-22T20:07:10.739Z,13.57
2022-10-22T20:11:18.219Z,13.57
2022-10-22T20:15:21.614Z,13.56
2022-10-22T20:19:26.146Z,13.55
2022-10-22T20:23:27.847Z,13.55
2022-10-22T20:27:29.528Z,13.56
2022-10-22T20:31:32.882Z,13.54
2022-10-22T20:35:35.618Z,13.53
2022-10-22T20:39:37.300Z,13.50
2022-10-22T20:43:39.054Z,13.48
2022-10-22T20:47:51.207Z,13.45
2022-10-22T20:51:53.539Z,13.44
2022-10-22T20:55:58.981Z,13.41
2022-10-22T21:00:00.762Z,13.37
2022-10-22T21:04:02.490Z,13.34
2022-10-22T21:08:05.267Z,13.32
2022-10-22T21:12:06.997Z,13.29
2022-10-22T21:16:13.300Z,13.27
2022-10-22T21:20:15.185Z,13.24
2022-10-22T21:24:17.026Z,13.21
2022-10-22T21:28:18.817Z,13.21
2022-10-22T21:32:20.559Z,13.20
2022-10-22T21:36:23.678Z,13.21
2022-10-22T21:40:27.636Z,13.21
2022-10-22T21:44:29.502Z,13.22
2022-10-22T21:48:31.182Z,13.22
2022-10-22T21:52:32.954Z,13.22
2022-10-22T21:56:36.098Z,13.22
2022-10-22T22:00:37.870Z,13.22
2022-10-22T22:04:39.773Z,13.22
2022-10-22T22:08:42.208Z,13.23
2022-10-22T22:12:44.210Z,13.22
2022-10-22T22:16:46.111Z,13.22
2022-10-22T22:20:47.725Z,13.20
2022-10-22T22:24:49.402Z,13.19
2022-10-22T22:28:51.144Z,13.18
2022-10-22T22:32:52.836Z,13.14
2022-10-22T22:36:54.617Z,13.13
2022-10-22T22:40:59.141Z,13.10
2022-10-22T22:45:00.798Z,13.10
2022-10-22T22:49:02.597Z,13.09
2022-10-22T22:53:04.288Z,13.08
2022-10-22T22:57:08.486Z,13.08
2022-10-22T23:01:25.146Z,13.05
2022-10-22T23:05:26.934Z,13.02
2022-10-22T23:09:28.606Z,13.02
2022-10-22T23:13:30.421Z,13.01
2022-10-22T23:17:32.206Z,13.00
2022-10-22T23:21:39.230Z,12.98
2022-10-22T23:25:41.071Z,12.96
2022-10-22T23:29:42.743Z,12.95
2022-10-22T23:33:44.751Z,12.93
2022-10-22T23:37:46.468Z,12.91
2022-10-22T23:41:48.236Z,12.88
2022-10-22T23:45:49.932Z,12.88
2022-10-22T23:49:51.569Z,12.86
2022-10-22T23:53:59.671Z,12.81
2022-10-22T23:58:01.340Z,12.77
